sensor_id;sensor_type;location;lat;lon;timestamp;P1;durP1;ratioP1;P2;durP2;ratioP2
6019;SDS011;3038;51.122;6.840;2024-03-29T00:00:40;4.63;;;1.00;;
6019;SDS011;3038;51.122;6.840;2024-03-29T00:03:05;2.73;;;1.30;;
6019;SDS011;3038;51.122;6.840;2024-03-29T00:05:34;4.50;;;1.67;;
6019;SDS011;3038;51.122;6.840;2024-03-29T00:08:00;8.40;;;1.67;;
6019;SDS011;3038;51.122;6.840;2024-03-29T00:10:26;3.20;;;1.33;;
6019;SDS011;3038;51.122;6.840;2024-03-29T00:12:51;2.73;;;1.20;;
6019;SDS011;3038;51.122;6.840;2024-03-29T00:15:17;2.10;;;0.93;;
6019;SDS011;3038;51.122;6.840;2024-03-29T00:17:42;2.23;;;1.63;;
6019;SDS011;3038;51.122;6.840;2024-03-29T00:20:08;4.20;;;2.50;;
6019;SDS011;3038;51.122;6.840;2024-03-29T00:22:34;9.03;;;3.30;;
6019;SDS011;3038;51.122;6.840;2024-03-29T00:25:00;8.20;;;4.60;;
6019;SDS011;3038;51.122;6.840;2024-03-29T00:27:25;9.20;;;6.70;;
6019;SDS011;3038;51.122;6.840;2024-03-29T00:29:52;7.40;;;6.70;;
6019;SDS011;3038;51.122;6.840;2024-03-29T00:32:18;7.27;;;5.10;;
6019;SDS011;3038;51.122;6.840;2024-03-29T00:34:44;6.00;;;4.73;;
6019;SDS011;3038;51.122;6.840;2024-03-29T00:37:10;5.77;;;4.07;;
6019;SDS011;3038;51.122;6.840;2024-03-29T00:39:36;6.40;;;3.43;;
6019;SDS011;3038;51.122;6.840;2024-03-29T00:42:01;2.87;;;1.63;;
6019;SDS011;3038;51.122;6.840;2024-03-29T00:44:27;4.57;;;1.47;;
6019;SDS011;3038;51.122;6.840;2024-03-29T00:46:52;2.30;;;1.37;;
6019;SDS011;3038;51.122;6.840;2024-03-29T00:49:18;2.60;;;1.60;;
6019;SDS011;3038;51.122;6.840;2024-03-29T00:51:44;3.80;;;2.20;;
6019;SDS011;3038;51.122;6.840;2024-03-29T00:54:09;4.80;;;2.10;;
6019;SDS011;3038;51.122;6.840;2024-03-29T00:56:35;3.83;;;2.00;;
6019;SDS011;3038;51.122;6.840;2024-03-29T00:59:00;4.83;;;1.30;;
6019;SDS011;3038;51.122;6.840;2024-03-29T01:01:25;2.90;;;1.00;;
6019;SDS011;3038;51.122;6.840;2024-03-29T01:03:51;3.37;;;1.20;;
6019;SDS011;3038;51.122;6.840;2024-03-29T01:06:17;3.50;;;1.20;;
6019;SDS011;3038;51.122;6.840;2024-03-29T01:08:42;3.33;;;2.30;;
6019;SDS011;3038;51.122;6.840;2024-03-29T01:11:08;2.57;;;1.20;;
6019;SDS011;3038;51.122;6.840;2024-03-29T01:13:33;4.20;;;1.47;;
6019;SDS011;3038;51.122;6.840;2024-03-29T01:15:58;5.13;;;1.83;;
6019;SDS011;3038;51.122;6.840;2024-03-29T01:18:24;1.77;;;1.13;;
6019;SDS011;3038;51.122;6.840;2024-03-29T01:20:49;1.97;;;1.20;;
6019;SDS011;3038;51.122;6.840;2024-03-29T01:23:14;1.90;;;1.10;;
6019;SDS011;3038;51.122;6.840;2024-03-29T01:25:40;3.10;;;1.53;;
6019;SDS011;3038;51.122;6.840;2024-03-29T01:28:05;2.83;;;1.27;;
6019;SDS011;3038;51.122;6.840;2024-03-29T01:30:30;3.87;;;1.30;;
6019;SDS011;3038;51.122;6.840;2024-03-29T01:32:56;2.40;;;1.00;;
6019;SDS011;3038;51.122;6.840;2024-03-29T01:35:21;1.83;;;1.10;;
6019;SDS011;3038;51.122;6.840;2024-03-29T01:37:47;2.63;;;1.53;;
6019;SDS011;3038;51.122;6.840;2024-03-29T01:40:12;2.83;;;1.07;;
6019;SDS011;3038;51.122;6.840;2024-03-29T01:42:37;1.93;;;1.17;;
6019;SDS011;3038;51.122;6.840;2024-03-29T01:45:03;2.07;;;1.10;;
6019;SDS011;3038;51.122;6.840;2024-03-29T01:47:29;3.20;;;1.20;;
6019;SDS011;3038;51.122;6.840;2024-03-29T01:49:54;2.20;;;1.20;;
6019;SDS011;3038;51.122;6.840;2024-03-29T01:52:20;3.10;;;1.33;;
6019;SDS011;3038;51.122;6.840;2024-03-29T01:54:46;4.20;;;1.40;;
6019;SDS011;3038;51.122;6.840;2024-03-29T01:57:13;4.00;;;1.20;;
6019;SDS011;3038;51.122;6.840;2024-03-29T01:59:40;2.47;;;1.50;;
6019;SDS011;3038;51.122;6.840;2024-03-29T02:02:07;2.83;;;1.23;;
6019;SDS011;3038;51.122;6.840;2024-03-29T02:04:33;2.00;;;1.20;;
6019;SDS011;3038;51.122;6.840;2024-03-29T02:07:00;3.17;;;1.00;;
6019;SDS011;3038;51.122;6.840;2024-03-29T02:09:25;1.80;;;1.40;;
6019;SDS011;3038;51.122;6.840;2024-03-29T02:11:51;3.10;;;1.30;;
6019;SDS011;3038;51.122;6.840;2024-03-29T02:14:16;2.40;;;1.23;;
6019;SDS011;3038;51.122;6.840;2024-03-29T02:16:41;3.83;;;1.30;;
6019;SDS011;3038;51.122;6.840;2024-03-29T02:19:07;2.93;;;1.27;;
6019;SDS011;3038;51.122;6.840;2024-03-29T02:21:33;2.83;;;1.20;;
6019;SDS011;3038;51.122;6.840;2024-03-29T02:24:08;2.93;;;1.40;;
6019;SDS011;3038;51.122;6.840;2024-03-29T02:26:34;2.60;;;1.20;;
6019;SDS011;3038;51.122;6.840;2024-03-29T02:29:06;2.10;;;1.03;;
6019;SDS011;3038;51.122;6.840;2024-03-29T02:31:32;1.93;;;1.10;;
6019;SDS011;3038;51.122;6.840;2024-03-29T02:33:58;2.60;;;1.20;;
6019;SDS011;3038;51.122;6.840;2024-03-29T02:36:23;2.00;;;1.07;;
6019;SDS011;3038;51.122;6.840;2024-03-29T02:38:48;4.10;;;1.67;;
6019;SDS011;3038;51.122;6.840;2024-03-29T02:41:14;2.50;;;1.10;;
6019;SDS011;3038;51.122;6.840;2024-03-29T02:43:39;2.93;;;1.13;;
6019;SDS011;3038;51.122;6.840;2024-03-29T02:46:04;3.97;;;1.10;;
6019;SDS011;3038;51.122;6.840;2024-03-29T02:48:30;2.13;;;1.00;;
6019;SDS011;3038;51.122;6.840;2024-03-29T02:50:55;3.80;;;1.60;;
6019;SDS011;3038;51.122;6.840;2024-03-29T02:53:20;3.43;;;1.33;;
6019;SDS011;3038;51.122;6.840;2024-03-29T02:55:46;4.17;;;1.40;;
6019;SDS011;3038;51.122;6.840;2024-03-29T02:58:11;5.47;;;1.47;;
6019;SDS011;3038;51.122;6.840;2024-03-29T03:00:36;2.30;;;1.30;;
6019;SDS011;3038;51.122;6.840;2024-03-29T03:03:02;5.10;;;1.83;;
6019;SDS011;3038;51.122;6.840;2024-03-29T03:05:29;2.90;;;1.40;;
6019;SDS011;3038;51.122;6.840;2024-03-29T03:07:54;3.23;;;1.57;;
6019;SDS011;3038;51.122;6.840;2024-03-29T03:10:44;2.70;;;1.13;;
6019;SDS011;3038;51.122;6.840;2024-03-29T03:13:24;2.70;;;1.17;;
6019;SDS011;3038;51.122;6.840;2024-03-29T03:15:49;2.53;;;1.30;;
6019;SDS011;3038;51.122;6.840;2024-03-29T03:18:15;2.87;;;1.60;;
6019;SDS011;3038;51.122;6.840;2024-03-29T03:20:40;4.60;;;1.80;;
6019;SDS011;3038;51.122;6.840;2024-03-29T03:23:06;2.73;;;1.40;;
6019;SDS011;3038;51.122;6.840;2024-03-29T03:25:31;4.50;;;1.50;;
6019;SDS011;3038;51.122;6.840;2024-03-29T03:27:56;5.40;;;1.70;;
6019;SDS011;3038;51.122;6.840;2024-03-29T03:30:22;2.60;;;1.77;;
6019;SDS011;3038;51.122;6.840;2024-03-29T03:32:47;5.00;;;1.30;;
6019;SDS011;3038;51.122;6.840;2024-03-29T03:35:13;4.20;;;1.57;;
6019;SDS011;3038;51.122;6.840;2024-03-29T03:37:38;7.00;;;2.17;;
6019;SDS011;3038;51.122;6.840;2024-03-29T03:40:04;2.70;;;1.37;;
6019;SDS011;3038;51.122;6.840;2024-03-29T03:42:31;3.70;;;1.03;;
6019;SDS011;3038;51.122;6.840;2024-03-29T03:44:56;4.93;;;1.67;;
6019;SDS011;3038;51.122;6.840;2024-03-29T03:47:21;3.50;;;1.37;;
6019;SDS011;3038;51.122;6.840;2024-03-29T03:49:47;1.90;;;1.40;;
6019;SDS011;3038;51.122;6.840;2024-03-29T03:52:12;3.20;;;1.10;;
6019;SDS011;3038;51.122;6.840;2024-03-29T03:54:37;4.10;;;1.03;;
6019;SDS011;3038;51.122;6.840;2024-03-29T03:57:04;4.40;;;1.80;;
6019;SDS011;3038;51.122;6.840;2024-03-29T03:59:29;2.50;;;1.27;;
6019;SDS011;3038;51.122;6.840;2024-03-29T04:01:55;5.00;;;1.53;;
6019;SDS011;3038;51.122;6.840;2024-03-29T04:04:20;3.90;;;1.50;;
6019;SDS011;3038;51.122;6.840;2024-03-29T04:06:45;2.40;;;2.20;;
6019;SDS011;3038;51.122;6.840;2024-03-29T04:09:12;3.40;;;1.60;;
6019;SDS011;3038;51.122;6.840;2024-03-29T04:11:41;3.43;;;1.97;;
6019;SDS011;3038;51.122;6.840;2024-03-29T04:14:06;2.83;;;2.07;;
6019;SDS011;3038;51.122;6.840;2024-03-29T04:16:32;3.53;;;2.00;;
6019;SDS011;3038;51.122;6.840;2024-03-29T04:18:57;3.73;;;1.50;;
6019;SDS011;3038;51.122;6.840;2024-03-29T04:21:22;2.90;;;1.20;;
6019;SDS011;3038;51.122;6.840;2024-03-29T04:23:48;1.60;;;0.97;;
6019;SDS011;3038;51.122;6.840;2024-03-29T04:26:13;1.83;;;1.40;;
6019;SDS011;3038;51.122;6.840;2024-03-29T04:28:38;2.37;;;1.10;;
6019;SDS011;3038;51.122;6.840;2024-03-29T04:31:04;2.50;;;1.37;;
6019;SDS011;3038;51.122;6.840;2024-03-29T04:33:29;4.57;;;1.93;;
6019;SDS011;3038;51.122;6.840;2024-03-29T04:35:58;2.70;;;1.53;;
6019;SDS011;3038;51.122;6.840;2024-03-29T04:38:28;2.07;;;1.40;;
6019;SDS011;3038;51.122;6.840;2024-03-29T04:40:55;3.00;;;1.30;;
6019;SDS011;3038;51.122;6.840;2024-03-29T04:43:21;4.17;;;1.50;;
6019;SDS011;3038;51.122;6.840;2024-03-29T04:45:48;3.30;;;1.70;;
6019;SDS011;3038;51.122;6.840;2024-03-29T04:48:14;4.20;;;1.40;;
6019;SDS011;3038;51.122;6.840;2024-03-29T04:50:39;4.97;;;2.50;;
6019;SDS011;3038;51.122;6.840;2024-03-29T04:53:05;3.47;;;1.40;;
6019;SDS011;3038;51.122;6.840;2024-03-29T04:55:33;7.27;;;2.30;;
6019;SDS011;3038;51.122;6.840;2024-03-29T04:57:59;3.37;;;1.40;;
6019;SDS011;3038;51.122;6.840;2024-03-29T05:00:24;3.23;;;1.70;;
6019;SDS011;3038;51.122;6.840;2024-03-29T05:02:49;4.20;;;1.87;;
6019;SDS011;3038;51.122;6.840;2024-03-29T05:05:15;2.97;;;1.73;;
6019;SDS011;3038;51.122;6.840;2024-03-29T05:07:41;4.73;;;1.20;;
6019;SDS011;3038;51.122;6.840;2024-03-29T05:10:07;2.27;;;1.63;;
6019;SDS011;3038;51.122;6.840;2024-03-29T05:12:34;3.00;;;1.70;;
6019;SDS011;3038;51.122;6.840;2024-03-29T05:15:00;5.67;;;1.67;;
6019;SDS011;3038;51.122;6.840;2024-03-29T05:17:25;5.60;;;1.57;;
6019;SDS011;3038;51.122;6.840;2024-03-29T05:19:52;3.30;;;1.40;;
6019;SDS011;3038;51.122;6.840;2024-03-29T05:22:20;2.40;;;1.90;;
6019;SDS011;3038;51.122;6.840;2024-03-29T05:24:46;2.70;;;1.47;;
6019;SDS011;3038;51.122;6.840;2024-03-29T05:27:11;3.83;;;1.57;;
6019;SDS011;3038;51.122;6.840;2024-03-29T05:29:37;3.60;;;1.60;;
6019;SDS011;3038;51.122;6.840;2024-03-29T05:32:03;5.10;;;1.93;;
6019;SDS011;3038;51.122;6.840;2024-03-29T05:34:31;3.97;;;1.93;;
6019;SDS011;3038;51.122;6.840;2024-03-29T05:36:56;3.47;;;1.73;;
6019;SDS011;3038;51.122;6.840;2024-03-29T05:39:22;4.93;;;1.87;;
6019;SDS011;3038;51.122;6.840;2024-03-29T05:41:47;5.33;;;1.93;;
6019;SDS011;3038;51.122;6.840;2024-03-29T05:44:12;6.20;;;1.80;;
6019;SDS011;3038;51.122;6.840;2024-03-29T05:46:38;3.23;;;1.60;;
6019;SDS011;3038;51.122;6.840;2024-03-29T05:49:05;5.27;;;1.37;;
6019;SDS011;3038;51.122;6.840;2024-03-29T05:51:30;4.00;;;1.90;;
6019;SDS011;3038;51.122;6.840;2024-03-29T05:53:56;3.93;;;2.00;;
6019;SDS011;3038;51.122;6.840;2024-03-29T05:56:21;2.60;;;1.73;;
6019;SDS011;3038;51.122;6.840;2024-03-29T05:58:47;3.10;;;1.53;;
6019;SDS011;3038;51.122;6.840;2024-03-29T06:01:12;3.10;;;2.10;;
6019;SDS011;3038;51.122;6.840;2024-03-29T06:03:38;2.57;;;1.77;;
6019;SDS011;3038;51.122;6.840;2024-03-29T06:06:03;4.10;;;1.80;;
6019;SDS011;3038;51.122;6.840;2024-03-29T06:08:29;2.90;;;1.97;;
6019;SDS011;3038;51.122;6.840;2024-03-29T06:10:54;2.50;;;1.70;;
6019;SDS011;3038;51.122;6.840;2024-03-29T06:13:20;2.90;;;1.60;;
6019;SDS011;3038;51.122;6.840;2024-03-29T06:16:14;6.87;;;2.00;;
6019;SDS011;3038;51.122;6.840;2024-03-29T06:18:58;6.10;;;1.90;;
6019;SDS011;3038;51.122;6.840;2024-03-29T06:21:23;5.60;;;2.10;;
6019;SDS011;3038;51.122;6.840;2024-03-29T06:23:49;4.63;;;2.00;;
6019;SDS011;3038;51.122;6.840;2024-03-29T06:26:14;3.80;;;1.90;;
6019;SDS011;3038;51.122;6.840;2024-03-29T06:28:39;3.40;;;1.90;;
6019;SDS011;3038;51.122;6.840;2024-03-29T06:31:05;3.43;;;1.60;;
6019;SDS011;3038;51.122;6.840;2024-03-29T06:33:30;4.27;;;2.00;;
6019;SDS011;3038;51.122;6.840;2024-03-29T06:35:55;4.13;;;2.40;;
6019;SDS011;3038;51.122;6.840;2024-03-29T06:38:21;3.00;;;1.60;;
6019;SDS011;3038;51.122;6.840;2024-03-29T06:40:46;2.00;;;1.80;;
6019;SDS011;3038;51.122;6.840;2024-03-29T06:43:12;5.70;;;2.07;;
6019;SDS011;3038;51.122;6.840;2024-03-29T06:45:41;1.90;;;1.47;;
6019;SDS011;3038;51.122;6.840;2024-03-29T06:48:10;2.80;;;1.83;;
6019;SDS011;3038;51.122;6.840;2024-03-29T06:50:35;4.73;;;2.30;;
6019;SDS011;3038;51.122;6.840;2024-03-29T06:53:02;2.57;;;1.87;;
6019;SDS011;3038;51.122;6.840;2024-03-29T06:55:27;3.40;;;2.30;;
6019;SDS011;3038;51.122;6.840;2024-03-29T06:57:52;2.50;;;1.90;;
6019;SDS011;3038;51.122;6.840;2024-03-29T07:00:18;5.73;;;3.00;;
6019;SDS011;3038;51.122;6.840;2024-03-29T07:02:43;4.40;;;2.90;;
6019;SDS011;3038;51.122;6.840;2024-03-29T07:05:09;3.23;;;2.17;;
6019;SDS011;3038;51.122;6.840;2024-03-29T07:07:36;6.80;;;2.07;;
6019;SDS011;3038;51.122;6.840;2024-03-29T07:10:02;2.30;;;1.80;;
6019;SDS011;3038;51.122;6.840;2024-03-29T07:12:28;3.80;;;2.00;;
6019;SDS011;3038;51.122;6.840;2024-03-29T07:14:53;6.10;;;2.13;;
6019;SDS011;3038;51.122;6.840;2024-03-29T07:17:19;2.17;;;1.63;;
6019;SDS011;3038;51.122;6.840;2024-03-29T07:19:44;3.03;;;1.83;;
6019;SDS011;3038;51.122;6.840;2024-03-29T07:22:09;4.90;;;2.00;;
6019;SDS011;3038;51.122;6.840;2024-03-29T07:24:35;3.70;;;2.17;;
6019;SDS011;3038;51.122;6.840;2024-03-29T07:27:00;2.00;;;1.57;;
6019;SDS011;3038;51.122;6.840;2024-03-29T07:29:25;2.80;;;1.70;;
6019;SDS011;3038;51.122;6.840;2024-03-29T07:31:51;2.77;;;1.67;;
6019;SDS011;3038;51.122;6.840;2024-03-29T07:34:16;2.93;;;1.90;;
6019;SDS011;3038;51.122;6.840;2024-03-29T07:36:42;3.87;;;1.80;;
6019;SDS011;3038;51.122;6.840;2024-03-29T07:39:07;1.93;;;1.80;;
6019;SDS011;3038;51.122;6.840;2024-03-29T07:41:33;4.80;;;2.13;;
6019;SDS011;3038;51.122;6.840;2024-03-29T07:43:58;3.30;;;1.73;;
6019;SDS011;3038;51.122;6.840;2024-03-29T07:46:29;2.40;;;1.73;;
6019;SDS011;3038;51.122;6.840;2024-03-29T07:48:57;2.70;;;2.50;;
6019;SDS011;3038;51.122;6.840;2024-03-29T07:51:23;4.30;;;2.23;;
6019;SDS011;3038;51.122;6.840;2024-03-29T07:53:48;3.27;;;2.00;;
6019;SDS011;3038;51.122;6.840;2024-03-29T07:56:13;2.17;;;1.57;;
6019;SDS011;3038;51.122;6.840;2024-03-29T07:58:39;1.73;;;1.63;;
6019;SDS011;3038;51.122;6.840;2024-03-29T08:01:04;2.70;;;1.97;;
6019;SDS011;3038;51.122;6.840;2024-03-29T08:03:30;2.90;;;1.80;;
6019;SDS011;3038;51.122;6.840;2024-03-29T08:05:59;2.93;;;2.20;;
6019;SDS011;3038;51.122;6.840;2024-03-29T08:08:25;1.90;;;1.43;;
6019;SDS011;3038;51.122;6.840;2024-03-29T08:10:52;2.50;;;1.60;;
6019;SDS011;3038;51.122;6.840;2024-03-29T08:13:18;2.43;;;1.43;;
6019;SDS011;3038;51.122;6.840;2024-03-29T08:15:45;2.90;;;2.23;;
6019;SDS011;3038;51.122;6.840;2024-03-29T08:18:11;4.13;;;2.00;;
6019;SDS011;3038;51.122;6.840;2024-03-29T08:20:37;2.87;;;1.90;;
6019;SDS011;3038;51.122;6.840;2024-03-29T08:23:02;2.60;;;2.07;;
6019;SDS011;3038;51.122;6.840;2024-03-29T08:25:28;2.53;;;1.80;;
6019;SDS011;3038;51.122;6.840;2024-03-29T08:27:53;3.27;;;2.53;;
6019;SDS011;3038;51.122;6.840;2024-03-29T08:30:23;1.80;;;1.60;;
6019;SDS011;3038;51.122;6.840;2024-03-29T08:32:50;1.93;;;1.60;;
6019;SDS011;3038;51.122;6.840;2024-03-29T08:35:17;4.53;;;2.50;;
6019;SDS011;3038;51.122;6.840;2024-03-29T08:37:42;2.00;;;1.57;;
6019;SDS011;3038;51.122;6.840;2024-03-29T08:40:07;1.70;;;1.13;;
6019;SDS011;3038;51.122;6.840;2024-03-29T08:42:33;2.90;;;1.60;;
6019;SDS011;3038;51.122;6.840;2024-03-29T08:45:02;2.20;;;1.40;;
6019;SDS011;3038;51.122;6.840;2024-03-29T08:47:28;2.80;;;1.60;;
6019;SDS011;3038;51.122;6.840;2024-03-29T08:49:54;3.23;;;1.83;;
6019;SDS011;3038;51.122;6.840;2024-03-29T08:52:19;3.30;;;1.40;;
6019;SDS011;3038;51.122;6.840;2024-03-29T08:54:44;2.97;;;1.80;;
6019;SDS011;3038;51.122;6.840;2024-03-29T08:57:10;1.73;;;1.23;;
6019;SDS011;3038;51.122;6.840;2024-03-29T08:59:35;1.97;;;1.47;;
6019;SDS011;3038;51.122;6.840;2024-03-29T09:02:04;1.30;;;1.00;;
6019;SDS011;3038;51.122;6.840;2024-03-29T09:04:32;2.20;;;1.00;;
6019;SDS011;3038;51.122;6.840;2024-03-29T09:07:01;1.80;;;0.90;;
6019;SDS011;3038;51.122;6.840;2024-03-29T09:09:28;1.30;;;0.90;;
6019;SDS011;3038;51.122;6.840;2024-03-29T09:11:56;2.53;;;2.13;;
6019;SDS011;3038;51.122;6.840;2024-03-29T09:14:22;2.07;;;1.30;;
6019;SDS011;3038;51.122;6.840;2024-03-29T09:16:47;1.70;;;1.00;;
6019;SDS011;3038;51.122;6.840;2024-03-29T09:19:13;4.17;;;1.00;;
6019;SDS011;3038;51.122;6.840;2024-03-29T09:21:39;1.40;;;1.00;;
6019;SDS011;3038;51.122;6.840;2024-03-29T09:24:05;2.70;;;1.13;;
6019;SDS011;3038;51.122;6.840;2024-03-29T09:26:31;1.70;;;0.90;;
6019;SDS011;3038;51.122;6.840;2024-03-29T09:28:57;3.10;;;1.50;;
6019;SDS011;3038;51.122;6.840;2024-03-29T09:31:22;2.33;;;0.90;;
6019;SDS011;3038;51.122;6.840;2024-03-29T09:33:48;1.77;;;1.43;;
6019;SDS011;3038;51.122;6.840;2024-03-29T09:36:17;1.27;;;1.07;;
6019;SDS011;3038;51.122;6.840;2024-03-29T09:38:45;1.57;;;0.93;;
6019;SDS011;3038;51.122;6.840;2024-03-29T09:41:10;3.20;;;1.00;;
6019;SDS011;3038;51.122;6.840;2024-03-29T09:43:40;1.53;;;1.10;;
6019;SDS011;3038;51.122;6.840;2024-03-29T09:46:08;2.63;;;1.17;;
6019;SDS011;3038;51.122;6.840;2024-03-29T09:48:34;1.30;;;0.90;;
6019;SDS011;3038;51.122;6.840;2024-03-29T09:51:04;2.23;;;1.03;;
6019;SDS011;3038;51.122;6.840;2024-03-29T09:53:31;2.43;;;1.27;;
6019;SDS011;3038;51.122;6.840;2024-03-29T09:55:59;1.47;;;1.17;;
6019;SDS011;3038;51.122;6.840;2024-03-29T09:58:25;1.53;;;1.00;;
6019;SDS011;3038;51.122;6.840;2024-03-29T10:00:50;2.30;;;0.90;;
6019;SDS011;3038;51.122;6.840;2024-03-29T10:03:16;1.43;;;0.93;;
6019;SDS011;3038;51.122;6.840;2024-03-29T10:05:45;1.60;;;1.10;;
6019;SDS011;3038;51.122;6.840;2024-03-29T10:08:12;1.50;;;1.00;;
6019;SDS011;3038;51.122;6.840;2024-03-29T10:10:39;4.90;;;1.00;;
6019;SDS011;3038;51.122;6.840;2024-03-29T10:13:06;1.77;;;1.00;;
6019;SDS011;3038;51.122;6.840;2024-03-29T10:15:31;1.53;;;0.80;;
6019;SDS011;3038;51.122;6.840;2024-03-29T10:18:02;1.37;;;0.70;;
6019;SDS011;3038;51.122;6.840;2024-03-29T10:20:27;1.20;;;0.80;;
6019;SDS011;3038;51.122;6.840;2024-03-29T10:22:53;1.60;;;0.97;;
6019;SDS011;3038;51.122;6.840;2024-03-29T10:25:20;1.87;;;0.70;;
6019;SDS011;3038;51.122;6.840;2024-03-29T10:27:46;1.20;;;0.70;;
6019;SDS011;3038;51.122;6.840;2024-03-29T10:30:11;1.20;;;0.80;;
6019;SDS011;3038;51.122;6.840;2024-03-29T10:32:42;2.90;;;0.70;;
6019;SDS011;3038;51.122;6.840;2024-03-29T10:35:08;1.30;;;0.80;;
6019;SDS011;3038;51.122;6.840;2024-03-29T10:37:34;1.10;;;0.70;;
6019;SDS011;3038;51.122;6.840;2024-03-29T10:40:10;1.13;;;0.70;;
6019;SDS011;3038;51.122;6.840;2024-03-29T10:42:41;2.00;;;0.70;;
6019;SDS011;3038;51.122;6.840;2024-03-29T10:45:07;1.10;;;0.70;;
6019;SDS011;3038;51.122;6.840;2024-03-29T10:47:33;1.40;;;0.93;;
6019;SDS011;3038;51.122;6.840;2024-03-29T10:49:59;1.13;;;0.70;;
6019;SDS011;3038;51.122;6.840;2024-03-29T10:52:25;1.10;;;0.60;;
6019;SDS011;3038;51.122;6.840;2024-03-29T10:54:54;1.27;;;0.80;;
6019;SDS011;3038;51.122;6.840;2024-03-29T10:57:23;1.97;;;0.90;;
6019;SDS011;3038;51.122;6.840;2024-03-29T11:00:02;2.07;;;0.90;;
6019;SDS011;3038;51.122;6.840;2024-03-29T11:02:35;1.87;;;0.80;;
6019;SDS011;3038;51.122;6.840;2024-03-29T11:05:21;1.43;;;0.80;;
6019;SDS011;3038;51.122;6.840;2024-03-29T11:07:48;1.40;;;1.10;;
6019;SDS011;3038;51.122;6.840;2024-03-29T11:16:04;2.17;;;1.00;;
6019;SDS011;3038;51.122;6.840;2024-03-29T11:18:29;1.70;;;0.90;;
6019;SDS011;3038;51.122;6.840;2024-03-29T11:20:58;1.73;;;0.70;;
6019;SDS011;3038;51.122;6.840;2024-03-29T11:23:27;2.07;;;1.00;;
6019;SDS011;3038;51.122;6.840;2024-03-29T11:25:53;3.67;;;1.43;;
6019;SDS011;3038;51.122;6.840;2024-03-29T11:28:26;1.40;;;0.80;;
6019;SDS011;3038;51.122;6.840;2024-03-29T11:30:58;1.63;;;1.07;;
6019;SDS011;3038;51.122;6.840;2024-03-29T11:33:27;5.53;;;0.90;;
6019;SDS011;3038;51.122;6.840;2024-03-29T11:35:53;1.60;;;0.70;;
6019;SDS011;3038;51.122;6.840;2024-03-29T11:38:18;1.70;;;0.80;;
6019;SDS011;3038;51.122;6.840;2024-03-29T11:40:54;1.37;;;0.80;;
6019;SDS011;3038;51.122;6.840;2024-03-29T11:43:20;1.60;;;0.93;;
6019;SDS011;3038;51.122;6.840;2024-03-29T11:45:45;3.30;;;0.87;;
6019;SDS011;3038;51.122;6.840;2024-03-29T11:48:17;1.27;;;0.80;;
6019;SDS011;3038;51.122;6.840;2024-03-29T11:50:48;3.00;;;0.90;;
6019;SDS011;3038;51.122;6.840;2024-03-29T11:53:13;2.30;;;0.83;;
6019;SDS011;3038;51.122;6.840;2024-03-29T11:55:39;1.27;;;0.73;;
6019;SDS011;3038;51.122;6.840;2024-03-29T11:58:04;1.60;;;0.90;;
6019;SDS011;3038;51.122;6.840;2024-03-29T12:00:29;1.10;;;0.70;;
6019;SDS011;3038;51.122;6.840;2024-03-29T12:02:55;3.30;;;0.80;;
6019;SDS011;3038;51.122;6.840;2024-03-29T12:05:22;1.30;;;0.80;;
6019;SDS011;3038;51.122;6.840;2024-03-29T12:07:48;1.97;;;1.03;;
6019;SDS011;3038;51.122;6.840;2024-03-29T12:10:13;1.20;;;0.60;;
6019;SDS011;3038;51.122;6.840;2024-03-29T12:12:39;2.60;;;0.90;;
6019;SDS011;3038;51.122;6.840;2024-03-29T12:15:07;1.10;;;0.63;;
6019;SDS011;3038;51.122;6.840;2024-03-29T12:17:33;1.73;;;0.63;;
6019;SDS011;3038;51.122;6.840;2024-03-29T12:19:58;1.43;;;0.77;;
6019;SDS011;3038;51.122;6.840;2024-03-29T12:22:30;1.93;;;0.70;;
6019;SDS011;3038;51.122;6.840;2024-03-29T12:24:56;3.13;;;1.20;;
6019;SDS011;3038;51.122;6.840;2024-03-29T12:27:22;1.63;;;0.70;;
6019;SDS011;3038;51.122;6.840;2024-03-29T12:29:49;2.13;;;0.60;;
6019;SDS011;3038;51.122;6.840;2024-03-29T12:32:18;1.97;;;0.57;;
6019;SDS011;3038;51.122;6.840;2024-03-29T12:34:45;1.90;;;0.63;;
6019;SDS011;3038;51.122;6.840;2024-03-29T12:37:10;3.03;;;0.60;;
6019;SDS011;3038;51.122;6.840;2024-03-29T12:39:36;1.67;;;0.90;;
6019;SDS011;3038;51.122;6.840;2024-03-29T12:42:04;1.70;;;1.20;;
6019;SDS011;3038;51.122;6.840;2024-03-29T12:44:30;1.67;;;1.07;;
6019;SDS011;3038;51.122;6.840;2024-03-29T12:46:57;1.30;;;0.67;;
6019;SDS011;3038;51.122;6.840;2024-03-29T12:49:24;1.20;;;0.80;;
6019;SDS011;3038;51.122;6.840;2024-03-29T12:51:49;2.70;;;0.70;;
6019;SDS011;3038;51.122;6.840;2024-03-29T12:54:15;1.60;;;0.97;;
6019;SDS011;3038;51.122;6.840;2024-03-29T12:56:40;2.10;;;1.10;;
6019;SDS011;3038;51.122;6.840;2024-03-29T12:59:07;1.80;;;0.90;;
6019;SDS011;3038;51.122;6.840;2024-03-29T13:01:32;1.17;;;0.77;;
6019;SDS011;3038;51.122;6.840;2024-03-29T13:03:57;2.07;;;0.90;;
6019;SDS011;3038;51.122;6.840;2024-03-29T13:06:23;2.60;;;1.43;;
6019;SDS011;3038;51.122;6.840;2024-03-29T13:08:48;1.83;;;0.70;;
6019;SDS011;3038;51.122;6.840;2024-03-29T13:11:14;1.60;;;1.10;;
6019;SDS011;3038;51.122;6.840;2024-03-29T13:13:40;2.97;;;0.77;;
6019;SDS011;3038;51.122;6.840;2024-03-29T13:16:05;1.20;;;0.60;;
6019;SDS011;3038;51.122;6.840;2024-03-29T13:18:31;2.77;;;0.70;;
6019;SDS011;3038;51.122;6.840;2024-03-29T13:20:56;1.60;;;0.97;;
6019;SDS011;3038;51.122;6.840;2024-03-29T13:23:24;1.20;;;0.60;;
6019;SDS011;3038;51.122;6.840;2024-03-29T13:25:50;1.00;;;0.60;;
6019;SDS011;3038;51.122;6.840;2024-03-29T13:28:18;1.20;;;0.57;;
6019;SDS011;3038;51.122;6.840;2024-03-29T13:30:43;0.93;;;0.50;;
6019;SDS011;3038;51.122;6.840;2024-03-29T13:33:10;3.33;;;0.60;;
6019;SDS011;3038;51.122;6.840;2024-03-29T13:35:37;1.00;;;0.40;;
6019;SDS011;3038;51.122;6.840;2024-03-29T13:38:03;1.20;;;0.47;;
6019;SDS011;3038;51.122;6.840;2024-03-29T13:40:29;1.27;;;0.73;;
6019;SDS011;3038;51.122;6.840;2024-03-29T13:42:55;1.40;;;0.57;;
6019;SDS011;3038;51.122;6.840;2024-03-29T13:45:21;1.37;;;0.67;;
6019;SDS011;3038;51.122;6.840;2024-03-29T13:47:46;1.20;;;0.70;;
6019;SDS011;3038;51.122;6.840;2024-03-29T13:50:12;1.10;;;0.70;;
6019;SDS011;3038;51.122;6.840;2024-03-29T13:52:40;1.13;;;0.60;;
6019;SDS011;3038;51.122;6.840;2024-03-29T13:55:06;0.90;;;0.40;;
6019;SDS011;3038;51.122;6.840;2024-03-29T13:57:32;1.63;;;0.70;;
6019;SDS011;3038;51.122;6.840;2024-03-29T13:59:58;1.00;;;0.57;;
6019;SDS011;3038;51.122;6.840;2024-03-29T14:02:24;1.23;;;0.70;;
6019;SDS011;3038;51.122;6.840;2024-03-29T14:04:51;1.00;;;0.60;;
6019;SDS011;3038;51.122;6.840;2024-03-29T14:07:17;1.30;;;0.60;;
6019;SDS011;3038;51.122;6.840;2024-03-29T14:09:46;1.07;;;0.53;;
6019;SDS011;3038;51.122;6.840;2024-03-29T14:12:12;1.40;;;0.53;;
6019;SDS011;3038;51.122;6.840;2024-03-29T14:14:38;1.43;;;0.80;;
6019;SDS011;3038;51.122;6.840;2024-03-29T14:17:04;1.33;;;0.60;;
6019;SDS011;3038;51.122;6.840;2024-03-29T14:19:31;1.93;;;0.60;;
6019;SDS011;3038;51.122;6.840;2024-03-29T14:21:58;1.30;;;0.50;;
6019;SDS011;3038;51.122;6.840;2024-03-29T14:24:27;1.40;;;0.60;;
6019;SDS011;3038;51.122;6.840;2024-03-29T14:26:55;1.23;;;0.60;;
6019;SDS011;3038;51.122;6.840;2024-03-29T14:29:21;1.40;;;0.70;;
6019;SDS011;3038;51.122;6.840;2024-03-29T14:31:49;1.00;;;0.60;;
6019;SDS011;3038;51.122;6.840;2024-03-29T14:34:16;1.10;;;0.57;;
6019;SDS011;3038;51.122;6.840;2024-03-29T14:36:42;1.00;;;0.60;;
6019;SDS011;3038;51.122;6.840;2024-03-29T14:39:08;1.27;;;0.70;;
6019;SDS011;3038;51.122;6.840;2024-03-29T14:41:34;1.00;;;0.60;;
6019;SDS011;3038;51.122;6.840;2024-03-29T14:44:01;1.20;;;0.50;;
6019;SDS011;3038;51.122;6.840;2024-03-29T14:46:27;1.63;;;0.50;;
6019;SDS011;3038;51.122;6.840;2024-03-29T14:48:52;1.10;;;0.63;;
6019;SDS011;3038;51.122;6.840;2024-03-29T14:51:18;4.70;;;3.93;;
6019;SDS011;3038;51.122;6.840;2024-03-29T14:53:44;2.13;;;1.30;;
6019;SDS011;3038;51.122;6.840;2024-03-29T14:56:14;1.57;;;0.63;;
6019;SDS011;3038;51.122;6.840;2024-03-29T14:58:40;1.50;;;0.73;;
6019;SDS011;3038;51.122;6.840;2024-03-29T15:01:05;1.67;;;0.50;;
6019;SDS011;3038;51.122;6.840;2024-03-29T15:03:31;2.90;;;0.90;;
6019;SDS011;3038;51.122;6.840;2024-03-29T15:05:56;1.97;;;0.70;;
6019;SDS011;3038;51.122;6.840;2024-03-29T15:08:22;1.83;;;0.57;;
6019;SDS011;3038;51.122;6.840;2024-03-29T15:10:55;3.77;;;2.50;;
6019;SDS011;3038;51.122;6.840;2024-03-29T15:13:23;1.13;;;0.57;;
6019;SDS011;3038;51.122;6.840;2024-03-29T15:15:59;2.13;;;0.80;;